In Rescue
 
Open Full Screen Window  High Contrast Mode
Wind Gusting 00 knots
03
October 19, 2020 8:32 PM EDT
Present Weather: Light Rain
Weather Information
Wind Direction
  010 °
Wind Speed
  03 kt (3 mph)
Wind Gust
  00 kt (0 mph)
Altimeter
30.18 in
Visibility
10 SM
Temperature
05° C
41° F
Dewpoint
03° C
37° F
Humidity
87%
1hr Rain Fall
00.00 in.
24hr Rain Fall
00.00 in.
Sky Condition
Overcast @ 3,100 ft
VFR

METAR KJYM 200032Z AUTO 01003KT 10SM -RA OVC031 05/03 A3018 RMK AO2 T00450029

FAA Disclaimer: The data displayed is for advisory purposes only and is not to be used for flight planning or operations.